sensor_id;sensor_type;location;lat;lon;timestamp;P1;durP1;ratioP1;P2;durP2;ratioP2
10715;SDS011;5409;42.620;23.316;2023-07-13T00:01:44;5.07;;;2.38;;
10715;SDS011;5409;42.620;23.316;2023-07-13T00:04:13;6.55;;;2.95;;
10715;SDS011;5409;42.620;23.316;2023-07-13T00:06:40;4.35;;;2.55;;
10715;SDS011;5409;42.620;23.316;2023-07-13T00:09:09;4.32;;;3.08;;
10715;SDS011;5409;42.620;23.316;2023-07-13T00:11:36;2.78;;;2.55;;
10715;SDS011;5409;42.620;23.316;2023-07-13T00:14:03;4.57;;;3.20;;
10715;SDS011;5409;42.620;23.316;2023-07-13T00:16:30;3.60;;;2.63;;
10715;SDS011;5409;42.620;23.316;2023-07-13T00:18:57;4.60;;;2.85;;
10715;SDS011;5409;42.620;23.316;2023-07-13T00:21:26;5.70;;;2.83;;
10715;SDS011;5409;42.620;23.316;2023-07-13T00:23:53;5.90;;;3.25;;
10715;SDS011;5409;42.620;23.316;2023-07-13T00:26:20;5.43;;;2.97;;
10715;SDS011;5409;42.620;23.316;2023-07-13T00:28:47;2.97;;;2.67;;
10715;SDS011;5409;42.620;23.316;2023-07-13T00:31:13;6.10;;;2.83;;
10715;SDS011;5409;42.620;23.316;2023-07-13T00:33:40;5.55;;;3.42;;
10715;SDS011;5409;42.620;23.316;2023-07-13T00:36:07;5.70;;;3.30;;
10715;SDS011;5409;42.620;23.316;2023-07-13T00:38:36;4.40;;;3.08;;
10715;SDS011;5409;42.620;23.316;2023-07-13T00:41:03;4.45;;;3.00;;
10715;SDS011;5409;42.620;23.316;2023-07-13T00:43:30;6.07;;;3.05;;
10715;SDS011;5409;42.620;23.316;2023-07-13T00:46:11;4.13;;;3.22;;
10715;SDS011;5409;42.620;23.316;2023-07-13T00:48:42;5.53;;;3.08;;
10715;SDS011;5409;42.620;23.316;2023-07-13T00:51:11;4.72;;;3.05;;
10715;SDS011;5409;42.620;23.316;2023-07-13T00:53:39;4.03;;;3.25;;
10715;SDS011;5409;42.620;23.316;2023-07-13T00:56:06;5.32;;;3.10;;
10715;SDS011;5409;42.620;23.316;2023-07-13T00:58:33;7.88;;;3.53;;
10715;SDS011;5409;42.620;23.316;2023-07-13T01:01:01;4.32;;;3.05;;
10715;SDS011;5409;42.620;23.316;2023-07-13T01:03:28;5.63;;;2.85;;
10715;SDS011;5409;42.620;23.316;2023-07-13T01:05:55;5.22;;;3.30;;
10715;SDS011;5409;42.620;23.316;2023-07-13T01:08:22;3.78;;;2.97;;
10715;SDS011;5409;42.620;23.316;2023-07-13T01:10:54;3.63;;;3.10;;
10715;SDS011;5409;42.620;23.316;2023-07-13T01:13:23;6.40;;;3.50;;
10715;SDS011;5409;42.620;23.316;2023-07-13T01:15:50;4.28;;;3.03;;
10715;SDS011;5409;42.620;23.316;2023-07-13T01:18:20;4.95;;;3.35;;
10715;SDS011;5409;42.620;23.316;2023-07-13T01:20:52;6.00;;;3.80;;
10715;SDS011;5409;42.620;23.316;2023-07-13T01:23:19;4.40;;;3.22;;
10715;SDS011;5409;42.620;23.316;2023-07-13T01:25:46;4.22;;;3.40;;
10715;SDS011;5409;42.620;23.316;2023-07-13T01:28:13;5.55;;;3.08;;
10715;SDS011;5409;42.620;23.316;2023-07-13T01:30:42;7.10;;;3.53;;
10715;SDS011;5409;42.620;23.316;2023-07-13T01:33:11;5.50;;;3.10;;
10715;SDS011;5409;42.620;23.316;2023-07-13T01:35:39;4.57;;;3.30;;
10715;SDS011;5409;42.620;23.316;2023-07-13T01:38:08;6.93;;;3.50;;
10715;SDS011;5409;42.620;23.316;2023-07-13T01:40:36;4.65;;;3.60;;
10715;SDS011;5409;42.620;23.316;2023-07-13T01:43:03;4.93;;;3.77;;
10715;SDS011;5409;42.620;23.316;2023-07-13T01:45:30;4.75;;;3.50;;
10715;SDS011;5409;42.620;23.316;2023-07-13T01:47:57;5.93;;;3.55;;
10715;SDS011;5409;42.620;23.316;2023-07-13T01:50:24;5.25;;;3.47;;
10715;SDS011;5409;42.620;23.316;2023-07-13T01:52:51;6.15;;;3.50;;
10715;SDS011;5409;42.620;23.316;2023-07-13T01:55:20;4.07;;;3.65;;
10715;SDS011;5409;42.620;23.316;2023-07-13T01:57:47;7.18;;;3.60;;
10715;SDS011;5409;42.620;23.316;2023-07-13T02:00:14;5.82;;;3.63;;
10715;SDS011;5409;42.620;23.316;2023-07-13T02:02:41;3.83;;;3.35;;
10715;SDS011;5409;42.620;23.316;2023-07-13T02:05:09;6.45;;;3.33;;
10715;SDS011;5409;42.620;23.316;2023-07-13T02:07:36;6.03;;;3.33;;
10715;SDS011;5409;42.620;23.316;2023-07-13T02:10:03;5.00;;;3.40;;
10715;SDS011;5409;42.620;23.316;2023-07-13T02:12:32;4.10;;;3.60;;
10715;SDS011;5409;42.620;23.316;2023-07-13T02:14:58;6.18;;;3.08;;
10715;SDS011;5409;42.620;23.316;2023-07-13T02:17:25;8.80;;;3.72;;
10715;SDS011;5409;42.620;23.316;2023-07-13T02:19:52;8.07;;;3.53;;
10715;SDS011;5409;42.620;23.316;2023-07-13T02:22:20;5.28;;;3.80;;
10715;SDS011;5409;42.620;23.316;2023-07-13T02:24:47;5.00;;;3.45;;
10715;SDS011;5409;42.620;23.316;2023-07-13T02:27:14;7.25;;;3.63;;
10715;SDS011;5409;42.620;23.316;2023-07-13T02:29:42;5.88;;;3.53;;
10715;SDS011;5409;42.620;23.316;2023-07-13T02:32:09;3.97;;;3.35;;
10715;SDS011;5409;42.620;23.316;2023-07-13T02:34:36;4.28;;;3.20;;
10715;SDS011;5409;42.620;23.316;2023-07-13T02:37:03;4.68;;;3.25;;
10715;SDS011;5409;42.620;23.316;2023-07-13T02:39:30;6.03;;;3.53;;
10715;SDS011;5409;42.620;23.316;2023-07-13T02:41:58;4.72;;;3.88;;
10715;SDS011;5409;42.620;23.316;2023-07-13T02:44:25;8.65;;;3.88;;
10715;SDS011;5409;42.620;23.316;2023-07-13T02:46:53;7.00;;;4.07;;
10715;SDS011;5409;42.620;23.316;2023-07-13T02:49:20;4.55;;;3.47;;
10715;SDS011;5409;42.620;23.316;2023-07-13T02:51:47;7.10;;;4.05;;
10715;SDS011;5409;42.620;23.316;2023-07-13T02:54:14;6.60;;;4.28;;
10715;SDS011;5409;42.620;23.316;2023-07-13T02:56:41;5.13;;;3.33;;
10715;SDS011;5409;42.620;23.316;2023-07-13T02:59:08;5.15;;;3.47;;
10715;SDS011;5409;42.620;23.316;2023-07-13T03:01:36;6.65;;;4.05;;
10715;SDS011;5409;42.620;23.316;2023-07-13T03:04:04;8.23;;;3.95;;
10715;SDS011;5409;42.620;23.316;2023-07-13T03:06:31;4.63;;;3.70;;
10715;SDS011;5409;42.620;23.316;2023-07-13T03:08:58;8.73;;;3.60;;
10715;SDS011;5409;42.620;23.316;2023-07-13T03:11:25;5.80;;;3.55;;
10715;SDS011;5409;42.620;23.316;2023-07-13T03:13:52;6.30;;;4.07;;
10715;SDS011;5409;42.620;23.316;2023-07-13T03:16:19;8.57;;;3.60;;
10715;SDS011;5409;42.620;23.316;2023-07-13T03:18:46;6.78;;;3.97;;
10715;SDS011;5409;42.620;23.316;2023-07-13T03:21:15;5.22;;;3.95;;
10715;SDS011;5409;42.620;23.316;2023-07-13T03:23:42;4.55;;;3.80;;
10715;SDS011;5409;42.620;23.316;2023-07-13T03:26:10;7.18;;;4.00;;
10715;SDS011;5409;42.620;23.316;2023-07-13T03:28:38;6.18;;;3.97;;
10715;SDS011;5409;42.620;23.316;2023-07-13T03:31:06;7.82;;;4.18;;
10715;SDS011;5409;42.620;23.316;2023-07-13T03:33:35;6.53;;;3.75;;
10715;SDS011;5409;42.620;23.316;2023-07-13T03:36:02;6.00;;;3.80;;
10715;SDS011;5409;42.620;23.316;2023-07-13T03:38:31;5.15;;;3.70;;
10715;SDS011;5409;42.620;23.316;2023-07-13T03:40:58;5.00;;;3.90;;
10715;SDS011;5409;42.620;23.316;2023-07-13T03:43:25;4.70;;;3.90;;
10715;SDS011;5409;42.620;23.316;2023-07-13T03:45:52;5.32;;;4.30;;
10715;SDS011;5409;42.620;23.316;2023-07-13T03:48:19;6.10;;;4.38;;
10715;SDS011;5409;42.620;23.316;2023-07-13T03:50:46;4.47;;;3.70;;
10715;SDS011;5409;42.620;23.316;2023-07-13T03:53:14;4.30;;;3.72;;
10715;SDS011;5409;42.620;23.316;2023-07-13T03:55:42;7.82;;;3.92;;
10715;SDS011;5409;42.620;23.316;2023-07-13T03:58:26;5.30;;;4.18;;
10715;SDS011;5409;42.620;23.316;2023-07-13T04:00:55;7.28;;;5.03;;
10715;SDS011;5409;42.620;23.316;2023-07-13T04:03:23;6.97;;;4.30;;
10715;SDS011;5409;42.620;23.316;2023-07-13T04:05:52;4.72;;;4.07;;
10715;SDS011;5409;42.620;23.316;2023-07-13T04:08:19;5.18;;;4.10;;
10715;SDS011;5409;42.620;23.316;2023-07-13T04:10:47;5.75;;;4.05;;
10715;SDS011;5409;42.620;23.316;2023-07-13T04:13:14;4.78;;;4.28;;
10715;SDS011;5409;42.620;23.316;2023-07-13T04:15:41;6.03;;;4.45;;
10715;SDS011;5409;42.620;23.316;2023-07-13T04:18:07;5.00;;;4.22;;
10715;SDS011;5409;42.620;23.316;2023-07-13T04:20:34;8.02;;;4.47;;
10715;SDS011;5409;42.620;23.316;2023-07-13T04:23:01;5.18;;;4.65;;
10715;SDS011;5409;42.620;23.316;2023-07-13T04:25:28;5.68;;;3.78;;
10715;SDS011;5409;42.620;23.316;2023-07-13T04:27:56;6.32;;;4.43;;
10715;SDS011;5409;42.620;23.316;2023-07-13T04:30:23;5.82;;;4.05;;
10715;SDS011;5409;42.620;23.316;2023-07-13T04:32:50;4.85;;;4.07;;
10715;SDS011;5409;42.620;23.316;2023-07-13T04:35:18;5.53;;;4.22;;
10715;SDS011;5409;42.620;23.316;2023-07-13T04:37:46;5.93;;;4.43;;
10715;SDS011;5409;42.620;23.316;2023-07-13T04:40:15;5.22;;;4.57;;
10715;SDS011;5409;42.620;23.316;2023-07-13T04:42:42;6.50;;;4.13;;
10715;SDS011;5409;42.620;23.316;2023-07-13T04:45:11;5.38;;;4.47;;
10715;SDS011;5409;42.620;23.316;2023-07-13T04:47:38;6.88;;;4.45;;
10715;SDS011;5409;42.620;23.316;2023-07-13T04:50:05;5.80;;;4.40;;
10715;SDS011;5409;42.620;23.316;2023-07-13T04:52:33;5.07;;;3.92;;
10715;SDS011;5409;42.620;23.316;2023-07-13T04:55:00;6.45;;;4.13;;
10715;SDS011;5409;42.620;23.316;2023-07-13T04:57:27;6.43;;;4.63;;
10715;SDS011;5409;42.620;23.316;2023-07-13T04:59:54;5.97;;;4.63;;
10715;SDS011;5409;42.620;23.316;2023-07-13T05:02:22;7.80;;;4.72;;
10715;SDS011;5409;42.620;23.316;2023-07-13T05:04:49;5.53;;;4.40;;
10715;SDS011;5409;42.620;23.316;2023-07-13T05:07:16;5.38;;;4.30;;
10715;SDS011;5409;42.620;23.316;2023-07-13T05:09:42;8.35;;;4.38;;
10715;SDS011;5409;42.620;23.316;2023-07-13T05:12:09;7.90;;;5.07;;
10715;SDS011;5409;42.620;23.316;2023-07-13T05:14:36;9.80;;;5.30;;
10715;SDS011;5409;42.620;23.316;2023-07-13T05:17:03;13.00;;;5.90;;
10715;SDS011;5409;42.620;23.316;2023-07-13T05:19:32;14.40;;;6.55;;
10715;SDS011;5409;42.620;23.316;2023-07-13T05:21:59;10.23;;;6.53;;
10715;SDS011;5409;42.620;23.316;2023-07-13T05:24:26;11.77;;;7.30;;
10715;SDS011;5409;42.620;23.316;2023-07-13T05:26:52;16.83;;;8.48;;
10715;SDS011;5409;42.620;23.316;2023-07-13T05:29:19;16.00;;;8.10;;
10715;SDS011;5409;42.620;23.316;2023-07-13T05:31:47;15.65;;;7.78;;
10715;SDS011;5409;42.620;23.316;2023-07-13T05:34:13;11.27;;;7.70;;
10715;SDS011;5409;42.620;23.316;2023-07-13T05:36:42;11.65;;;8.10;;
10715;SDS011;5409;42.620;23.316;2023-07-13T05:39:08;10.43;;;7.30;;
10715;SDS011;5409;42.620;23.316;2023-07-13T05:41:36;10.48;;;7.90;;
10715;SDS011;5409;42.620;23.316;2023-07-13T05:44:03;16.58;;;8.30;;
10715;SDS011;5409;42.620;23.316;2023-07-13T05:46:30;18.90;;;8.30;;
10715;SDS011;5409;42.620;23.316;2023-07-13T05:48:57;16.55;;;7.53;;
10715;SDS011;5409;42.620;23.316;2023-07-13T05:51:23;9.00;;;6.75;;
10715;SDS011;5409;42.620;23.316;2023-07-13T05:53:51;10.98;;;7.18;;
10715;SDS011;5409;42.620;23.316;2023-07-13T05:56:18;11.50;;;7.47;;
10715;SDS011;5409;42.620;23.316;2023-07-13T05:58:45;11.20;;;7.05;;
10715;SDS011;5409;42.620;23.316;2023-07-13T06:01:13;15.32;;;7.25;;
10715;SDS011;5409;42.620;23.316;2023-07-13T06:03:40;9.57;;;6.13;;
10715;SDS011;5409;42.620;23.316;2023-07-13T06:06:09;13.20;;;6.72;;
10715;SDS011;5409;42.620;23.316;2023-07-13T06:08:36;14.55;;;6.97;;
10715;SDS011;5409;42.620;23.316;2023-07-13T06:11:05;11.38;;;6.20;;
10715;SDS011;5409;42.620;23.316;2023-07-13T06:13:33;36.42;;;7.80;;
10715;SDS011;5409;42.620;23.316;2023-07-13T06:16:00;15.65;;;6.38;;
10715;SDS011;5409;42.620;23.316;2023-07-13T06:18:29;10.82;;;6.25;;
10715;SDS011;5409;42.620;23.316;2023-07-13T06:20:56;9.57;;;6.28;;
10715;SDS011;5409;42.620;23.316;2023-07-13T06:23:22;12.57;;;5.88;;
10715;SDS011;5409;42.620;23.316;2023-07-13T06:25:49;12.70;;;5.93;;
10715;SDS011;5409;42.620;23.316;2023-07-13T06:28:17;8.80;;;6.47;;
10715;SDS011;5409;42.620;23.316;2023-07-13T06:30:44;10.18;;;6.03;;
10715;SDS011;5409;42.620;23.316;2023-07-13T06:33:11;18.48;;;7.93;;
10715;SDS011;5409;42.620;23.316;2023-07-13T06:35:38;9.57;;;5.40;;
10715;SDS011;5409;42.620;23.316;2023-07-13T06:38:05;6.93;;;6.05;;
10715;SDS011;5409;42.620;23.316;2023-07-13T06:40:31;14.27;;;5.90;;
10715;SDS011;5409;42.620;23.316;2023-07-13T06:42:58;17.65;;;12.63;;
10715;SDS011;5409;42.620;23.316;2023-07-13T06:45:26;22.63;;;16.95;;
10715;SDS011;5409;42.620;23.316;2023-07-13T06:47:53;12.23;;;8.68;;
10715;SDS011;5409;42.620;23.316;2023-07-13T06:50:20;12.00;;;6.10;;
10715;SDS011;5409;42.620;23.316;2023-07-13T06:52:46;14.15;;;6.88;;
10715;SDS011;5409;42.620;23.316;2023-07-13T06:55:13;18.23;;;6.22;;
10715;SDS011;5409;42.620;23.316;2023-07-13T06:57:40;15.20;;;6.85;;
10715;SDS011;5409;42.620;23.316;2023-07-13T07:00:07;14.10;;;6.93;;
10715;SDS011;5409;42.620;23.316;2023-07-13T07:02:36;12.15;;;7.32;;
10715;SDS011;5409;42.620;23.316;2023-07-13T07:05:03;13.65;;;7.43;;
10715;SDS011;5409;42.620;23.316;2023-07-13T07:07:30;11.48;;;6.90;;
10715;SDS011;5409;42.620;23.316;2023-07-13T07:09:57;14.48;;;7.93;;
10715;SDS011;5409;42.620;23.316;2023-07-13T07:12:23;16.55;;;9.63;;
10715;SDS011;5409;42.620;23.316;2023-07-13T07:14:50;18.27;;;7.80;;
10715;SDS011;5409;42.620;23.316;2023-07-13T07:17:17;14.43;;;6.07;;
10715;SDS011;5409;42.620;23.316;2023-07-13T07:19:45;17.67;;;7.18;;
10715;SDS011;5409;42.620;23.316;2023-07-13T07:22:12;14.77;;;7.00;;
10715;SDS011;5409;42.620;23.316;2023-07-13T07:24:39;14.10;;;6.88;;
10715;SDS011;5409;42.620;23.316;2023-07-13T07:27:05;12.45;;;6.88;;
10715;SDS011;5409;42.620;23.316;2023-07-13T07:29:32;11.00;;;6.63;;
10715;SDS011;5409;42.620;23.316;2023-07-13T07:31:59;11.80;;;6.97;;
10715;SDS011;5409;42.620;23.316;2023-07-13T07:34:26;10.45;;;6.57;;
10715;SDS011;5409;42.620;23.316;2023-07-13T07:36:54;17.35;;;7.63;;
10715;SDS011;5409;42.620;23.316;2023-07-13T07:39:21;12.88;;;6.97;;
10715;SDS011;5409;42.620;23.316;2023-07-13T07:41:48;12.82;;;6.55;;
10715;SDS011;5409;42.620;23.316;2023-07-13T07:44:14;13.68;;;6.63;;
10715;SDS011;5409;42.620;23.316;2023-07-13T07:46:41;11.70;;;6.28;;
10715;SDS011;5409;42.620;23.316;2023-07-13T07:49:08;10.60;;;6.32;;
10715;SDS011;5409;42.620;23.316;2023-07-13T07:51:35;8.90;;;6.10;;
10715;SDS011;5409;42.620;23.316;2023-07-13T07:54:04;10.90;;;7.32;;
10715;SDS011;5409;42.620;23.316;2023-07-13T07:56:31;9.43;;;6.75;;
10715;SDS011;5409;42.620;23.316;2023-07-13T07:58:58;12.05;;;6.75;;
10715;SDS011;5409;42.620;23.316;2023-07-13T08:01:25;12.25;;;6.82;;
10715;SDS011;5409;42.620;23.316;2023-07-13T08:03:52;8.43;;;6.50;;
10715;SDS011;5409;42.620;23.316;2023-07-13T08:06:18;10.75;;;6.25;;
10715;SDS011;5409;42.620;23.316;2023-07-13T08:08:47;8.85;;;6.35;;
10715;SDS011;5409;42.620;23.316;2023-07-13T08:11:15;12.48;;;6.47;;
10715;SDS011;5409;42.620;23.316;2023-07-13T08:13:43;8.45;;;6.32;;
10715;SDS011;5409;42.620;23.316;2023-07-13T08:16:10;8.60;;;6.32;;
10715;SDS011;5409;42.620;23.316;2023-07-13T08:18:37;8.40;;;6.13;;
10715;SDS011;5409;42.620;23.316;2023-07-13T08:21:04;14.50;;;5.90;;
10715;SDS011;5409;42.620;23.316;2023-07-13T08:23:30;11.93;;;6.50;;
10715;SDS011;5409;42.620;23.316;2023-07-13T08:25:57;8.05;;;6.30;;
10715;SDS011;5409;42.620;23.316;2023-07-13T08:28:28;8.63;;;5.72;;
10715;SDS011;5409;42.620;23.316;2023-07-13T08:30:54;9.40;;;6.30;;
10715;SDS011;5409;42.620;23.316;2023-07-13T08:33:23;9.48;;;6.57;;
10715;SDS011;5409;42.620;23.316;2023-07-13T08:35:50;11.93;;;6.55;;
10715;SDS011;5409;42.620;23.316;2023-07-13T08:38:17;9.52;;;5.93;;
10715;SDS011;5409;42.620;23.316;2023-07-13T08:40:45;7.68;;;6.53;;
10715;SDS011;5409;42.620;23.316;2023-07-13T08:43:18;10.20;;;6.18;;
10715;SDS011;5409;42.620;23.316;2023-07-13T08:45:51;11.82;;;6.15;;
10715;SDS011;5409;42.620;23.316;2023-07-13T08:48:23;9.63;;;6.85;;
10715;SDS011;5409;42.620;23.316;2023-07-13T08:50:54;9.50;;;6.53;;
10715;SDS011;5409;42.620;23.316;2023-07-13T08:53:24;8.20;;;6.03;;
10715;SDS011;5409;42.620;23.316;2023-07-13T08:56:01;10.25;;;6.63;;
10715;SDS011;5409;42.620;23.316;2023-07-13T08:58:28;14.80;;;6.55;;
10715;SDS011;5409;42.620;23.316;2023-07-13T09:00:58;13.00;;;6.47;;
10715;SDS011;5409;42.620;23.316;2023-07-13T09:03:36;16.73;;;6.28;;
10715;SDS011;5409;42.620;23.316;2023-07-13T09:06:06;7.85;;;6.47;;
10715;SDS011;5409;42.620;23.316;2023-07-13T09:08:42;8.13;;;6.10;;
10715;SDS011;5409;42.620;23.316;2023-07-13T09:11:23;9.35;;;6.28;;
10715;SDS011;5409;42.620;23.316;2023-07-13T09:14:04;10.18;;;6.40;;
10715;SDS011;5409;42.620;23.316;2023-07-13T09:16:44;12.13;;;5.50;;
10715;SDS011;5409;42.620;23.316;2023-07-13T09:19:19;8.27;;;5.68;;
10715;SDS011;5409;42.620;23.316;2023-07-13T09:21:52;11.20;;;5.85;;
10715;SDS011;5409;42.620;23.316;2023-07-13T09:24:34;8.00;;;5.88;;
10715;SDS011;5409;42.620;23.316;2023-07-13T09:27:05;9.63;;;5.50;;
10715;SDS011;5409;42.620;23.316;2023-07-13T09:29:43;11.52;;;5.88;;
10715;SDS011;5409;42.620;23.316;2023-07-13T09:32:16;8.27;;;5.43;;
10715;SDS011;5409;42.620;23.316;2023-07-13T09:34:49;9.88;;;5.15;;
10715;SDS011;5409;42.620;23.316;2023-07-13T09:37:17;7.60;;;5.00;;
10715;SDS011;5409;42.620;23.316;2023-07-13T09:39:46;8.43;;;4.70;;
10715;SDS011;5409;42.620;23.316;2023-07-13T09:42:16;8.23;;;4.82;;
10715;SDS011;5409;42.620;23.316;2023-07-13T09:44:51;11.07;;;5.57;;
10715;SDS011;5409;42.620;23.316;2023-07-13T09:47:22;7.80;;;4.80;;
10715;SDS011;5409;42.620;23.316;2023-07-13T09:49:54;11.43;;;5.28;;
10715;SDS011;5409;42.620;23.316;2023-07-13T09:52:23;8.13;;;5.82;;
10715;SDS011;5409;42.620;23.316;2023-07-13T09:54:51;8.35;;;5.93;;
10715;SDS011;5409;42.620;23.316;2023-07-13T09:57:24;11.07;;;5.60;;
10715;SDS011;5409;42.620;23.316;2023-07-13T09:59:52;8.20;;;5.80;;
10715;SDS011;5409;42.620;23.316;2023-07-13T10:02:27;7.72;;;5.57;;
10715;SDS011;5409;42.620;23.316;2023-07-13T10:04:59;8.45;;;5.28;;
10715;SDS011;5409;42.620;23.316;2023-07-13T10:07:28;7.45;;;4.90;;
10715;SDS011;5409;42.620;23.316;2023-07-13T10:09:56;8.68;;;5.50;;
10715;SDS011;5409;42.620;23.316;2023-07-13T10:12:26;9.82;;;5.20;;
10715;SDS011;5409;42.620;23.316;2023-07-13T10:14:54;8.10;;;5.25;;
10715;SDS011;5409;42.620;23.316;2023-07-13T10:17:25;9.50;;;5.90;;
10715;SDS011;5409;42.620;23.316;2023-07-13T10:19:57;7.43;;;5.65;;
10715;SDS011;5409;42.620;23.316;2023-07-13T10:22:30;9.30;;;5.45;;
10715;SDS011;5409;42.620;23.316;2023-07-13T10:25:07;10.25;;;5.32;;
10715;SDS011;5409;42.620;23.316;2023-07-13T10:27:41;12.20;;;5.75;;
10715;SDS011;5409;42.620;23.316;2023-07-13T10:30:09;19.25;;;6.18;;
10715;SDS011;5409;42.620;23.316;2023-07-13T10:32:43;8.15;;;5.70;;
10715;SDS011;5409;42.620;23.316;2023-07-13T10:35:11;10.68;;;6.07;;
10715;SDS011;5409;42.620;23.316;2023-07-13T10:37:42;9.32;;;6.00;;
10715;SDS011;5409;42.620;23.316;2023-07-13T10:40:12;7.53;;;5.95;;
10715;SDS011;5409;42.620;23.316;2023-07-13T10:42:43;13.27;;;6.38;;
10715;SDS011;5409;42.620;23.316;2023-07-13T10:45:14;13.23;;;6.70;;
10715;SDS011;5409;42.620;23.316;2023-07-13T10:47:44;8.93;;;6.15;;
10715;SDS011;5409;42.620;23.316;2023-07-13T10:50:14;9.55;;;5.95;;
10715;SDS011;5409;42.620;23.316;2023-07-13T10:52:45;14.32;;;6.30;;
10715;SDS011;5409;42.620;23.316;2023-07-13T10:55:32;16.02;;;5.55;;
10715;SDS011;5409;42.620;23.316;2023-07-13T10:58:01;13.73;;;6.20;;
10715;SDS011;5409;42.620;23.316;2023-07-13T11:00:32;14.10;;;6.43;;
10715;SDS011;5409;42.620;23.316;2023-07-13T11:03:11;8.35;;;5.95;;
10715;SDS011;5409;42.620;23.316;2023-07-13T11:05:40;15.07;;;5.60;;
10715;SDS011;5409;42.620;23.316;2023-07-13T11:08:13;9.05;;;6.10;;
10715;SDS011;5409;42.620;23.316;2023-07-13T11:10:46;10.10;;;6.03;;
10715;SDS011;5409;42.620;23.316;2023-07-13T11:22:22;10.13;;;5.57;;
10715;SDS011;5409;42.620;23.316;2023-07-13T11:24:56;10.18;;;5.28;;
10715;SDS011;5409;42.620;23.316;2023-07-13T11:27:36;11.52;;;5.40;;
10715;SDS011;5409;42.620;23.316;2023-07-13T11:30:19;8.98;;;5.32;;
10715;SDS011;5409;42.620;23.316;2023-07-13T11:32:50;7.22;;;4.97;;
10715;SDS011;5409;42.620;23.316;2023-07-13T11:35:21;12.00;;;5.07;;
10715;SDS011;5409;42.620;23.316;2023-07-13T11:37:53;10.82;;;5.75;;
10715;SDS011;5409;42.620;23.316;2023-07-13T11:40:21;15.25;;;5.53;;
10715;SDS011;5409;42.620;23.316;2023-07-13T11:42:54;12.63;;;5.50;;
10715;SDS011;5409;42.620;23.316;2023-07-13T11:45:25;13.88;;;6.10;;
10715;SDS011;5409;42.620;23.316;2023-07-13T11:47:53;25.38;;;6.70;;
10715;SDS011;5409;42.620;23.316;2023-07-13T11:50:22;10.10;;;5.68;;
10715;SDS011;5409;42.620;23.316;2023-07-13T11:52:50;28.67;;;6.57;;
10715;SDS011;5409;42.620;23.316;2023-07-13T11:55:21;8.52;;;5.68;;
10715;SDS011;5409;42.620;23.316;2023-07-13T11:57:50;8.85;;;4.82;;
10715;SDS011;5409;42.620;23.316;2023-07-13T12:00:21;13.90;;;5.15;;
10715;SDS011;5409;42.620;23.316;2023-07-13T12:02:52;7.88;;;5.50;;
10715;SDS011;5409;42.620;23.316;2023-07-13T12:05:21;11.65;;;5.60;;
10715;SDS011;5409;42.620;23.316;2023-07-13T12:07:50;12.05;;;5.10;;
10715;SDS011;5409;42.620;23.316;2023-07-13T12:10:19;11.70;;;5.43;;
10715;SDS011;5409;42.620;23.316;2023-07-13T12:12:51;9.88;;;5.55;;
10715;SDS011;5409;42.620;23.316;2023-07-13T12:15:19;7.53;;;5.50;;
10715;SDS011;5409;42.620;23.316;2023-07-13T12:17:48;11.15;;;4.78;;
10715;SDS011;5409;42.620;23.316;2023-07-13T12:20:19;7.78;;;5.60;;
10715;SDS011;5409;42.620;23.316;2023-07-13T12:22:49;10.18;;;5.60;;
10715;SDS011;5409;42.620;23.316;2023-07-13T12:25:17;13.25;;;5.38;;
10715;SDS011;5409;42.620;23.316;2023-07-13T12:27:48;11.90;;;4.97;;
10715;SDS011;5409;42.620;23.316;2023-07-13T12:30:23;7.57;;;4.53;;
10715;SDS011;5409;42.620;23.316;2023-07-13T12:32:57;6.93;;;4.60;;
10715;SDS011;5409;42.620;23.316;2023-07-13T12:35:26;20.65;;;6.28;;
10715;SDS011;5409;42.620;23.316;2023-07-13T12:37:58;11.30;;;5.35;;
10715;SDS011;5409;42.620;23.316;2023-07-13T12:40:26;8.45;;;5.07;;
10715;SDS011;5409;42.620;23.316;2023-07-13T12:43:03;7.40;;;4.85;;
10715;SDS011;5409;42.620;23.316;2023-07-13T12:45:31;5.63;;;4.68;;
10715;SDS011;5409;42.620;23.316;2023-07-13T12:47:59;7.63;;;5.22;;
10715;SDS011;5409;42.620;23.316;2023-07-13T12:50:36;8.05;;;4.40;;
10715;SDS011;5409;42.620;23.316;2023-07-13T12:53:09;11.57;;;5.40;;
10715;SDS011;5409;42.620;23.316;2023-07-13T12:55:40;12.80;;;5.85;;
10715;SDS011;5409;42.620;23.316;2023-07-13T12:58:13;11.02;;;4.72;;
10715;SDS011;5409;42.620;23.316;2023-07-13T13:00:53;10.82;;;4.88;;
10715;SDS011;5409;42.620;23.316;2023-07-13T13:03:22;15.77;;;5.75;;
10715;SDS011;5409;42.620;23.316;2023-07-13T13:05:57;8.20;;;4.90;;
10715;SDS011;5409;42.620;23.316;2023-07-13T13:08:28;14.82;;;5.28;;
10715;SDS011;5409;42.620;23.316;2023-07-13T13:10:55;14.48;;;4.68;;
10715;SDS011;5409;42.620;23.316;2023-07-13T13:13:23;6.45;;;4.30;;
10715;SDS011;5409;42.620;23.316;2023-07-13T13:15:50;14.98;;;5.43;;
10715;SDS011;5409;42.620;23.316;2023-07-13T13:18:18;10.38;;;4.80;;
10715;SDS011;5409;42.620;23.316;2023-07-13T13:20:46;11.80;;;4.43;;
10715;SDS011;5409;42.620;23.316;2023-07-13T13:23:13;11.43;;;5.13;;
10715;SDS011;5409;42.620;23.316;2023-07-13T13:25:42;18.15;;;5.25;;
10715;SDS011;5409;42.620;23.316;2023-07-13T13:28:12;25.10;;;5.90;;
10715;SDS011;5409;42.620;23.316;2023-07-13T13:30:42;16.70;;;4.88;;
10715;SDS011;5409;42.620;23.316;2023-07-13T13:33:10;14.35;;;5.68;;
10715;SDS011;5409;42.620;23.316;2023-07-13T13:35:38;14.48;;;5.05;;
10715;SDS011;5409;42.620;23.316;2023-07-13T13:38:09;9.80;;;5.32;;
10715;SDS011;5409;42.620;23.316;2023-07-13T13:40:39;6.82;;;4.32;;
10715;SDS011;5409;42.620;23.316;2023-07-13T13:43:13;6.75;;;4.57;;
10715;SDS011;5409;42.620;23.316;2023-07-13T13:45:43;10.02;;;4.43;;
10715;SDS011;5409;42.620;23.316;2023-07-13T13:48:13;10.80;;;4.95;;
10715;SDS011;5409;42.620;23.316;2023-07-13T13:50:41;12.90;;;5.00;;
10715;SDS011;5409;42.620;23.316;2023-07-13T13:53:09;10.90;;;5.03;;
10715;SDS011;5409;42.620;23.316;2023-07-13T13:55:37;13.93;;;5.15;;
10715;SDS011;5409;42.620;23.316;2023-07-13T13:58:04;9.43;;;4.63;;
10715;SDS011;5409;42.620;23.316;2023-07-13T14:00:31;8.25;;;4.55;;
10715;SDS011;5409;42.620;23.316;2023-07-13T14:02:59;11.00;;;4.97;;
10715;SDS011;5409;42.620;23.316;2023-07-13T14:05:26;10.05;;;4.70;;
10715;SDS011;5409;42.620;23.316;2023-07-13T14:07:55;6.55;;;4.80;;
10715;SDS011;5409;42.620;23.316;2023-07-13T14:10:22;8.00;;;4.75;;
10715;SDS011;5409;42.620;23.316;2023-07-13T14:12:50;7.53;;;4.82;;
10715;SDS011;5409;42.620;23.316;2023-07-13T14:15:20;8.75;;;4.30;;
10715;SDS011;5409;42.620;23.316;2023-07-13T14:17:49;15.88;;;5.38;;
10715;SDS011;5409;42.620;23.316;2023-07-13T14:20:17;8.77;;;4.95;;
10715;SDS011;5409;42.620;23.316;2023-07-13T14:22:45;8.77;;;4.88;;
10715;SDS011;5409;42.620;23.316;2023-07-13T14:25:12;8.82;;;4.32;;
10715;SDS011;5409;42.620;23.316;2023-07-13T14:27:40;8.82;;;4.53;;
10715;SDS011;5409;42.620;23.316;2023-07-13T14:30:12;8.27;;;4.40;;
10715;SDS011;5409;42.620;23.316;2023-07-13T14:32:40;8.57;;;4.38;;
10715;SDS011;5409;42.620;23.316;2023-07-13T14:35:07;8.55;;;5.20;;
10715;SDS011;5409;42.620;23.316;2023-07-13T14:37:38;6.10;;;4.38;;
10715;SDS011;5409;42.620;23.316;2023-07-13T14:40:11;9.07;;;4.90;;
10715;SDS011;5409;42.620;23.316;2023-07-13T14:42:39;7.95;;;4.65;;
10715;SDS011;5409;42.620;23.316;2023-07-13T14:45:09;10.70;;;4.80;;
10715;SDS011;5409;42.620;23.316;2023-07-13T14:47:39;8.75;;;5.30;;
10715;SDS011;5409;42.620;23.316;2023-07-13T14:50:08;6.50;;;4.40;;
10715;SDS011;5409;42.620;23.316;2023-07-13T14:52:41;9.80;;;5.07;;
10715;SDS011;5409;42.620;23.316;2023-07-13T14:55:09;10.52;;;4.88;;
10715;SDS011;5409;42.620;23.316;2023-07-13T14:57:37;8.25;;;4.90;;
10715;SDS011;5409;42.620;23.316;2023-07-13T15:00:05;7.68;;;4.55;;
10715;SDS011;5409;42.620;23.316;2023-07-13T15:02:38;8.48;;;4.82;;